Time,TemperatureF,DewpointF,PressureIn,WindDirection,WindDirectionDegrees,WindSpeedMPH,WindSpeedGustMPH,Humidity,HourlyPrecipIn,Conditions,Clouds,dailyrainin,SolarRadiationWatts/m^2,SoftwareType,DateUTC
2013-01-02 00:02:00,23.0,21.0,-100.00,SSE,167,13.0,18.0,91,0.00,,,0.00,0.000000,,2013-01-02 09:02:00,
2013-01-02 00:12:00,23.0,21.0,-100.00,SSE,167,13.0,18.0,91,0.00,,,0.00,0.000000,,2013-01-02 09:12:00,
2013-01-02 00:22:00,23.0,21.0,-100.00,SSE,167,13.0,18.0,91,0.00,,,0.00,0.000000,,2013-01-02 09:22:00,
2013-01-02 00:32:00,23.0,21.0,-100.00,SSE,167,13.0,18.0,91,0.00,,,0.00,0.000000,,2013-01-02 09:32:00,
2013-01-02 00:52:00,22.0,19.0,-100.00,South,180,13.0,19.0,89,0.00,,,0.00,0.000000,,2013-01-02 09:52:00,
2013-01-02 01:02:00,22.0,19.0,-100.00,South,180,13.0,19.0,89,0.00,,,0.00,0.000000,,2013-01-02 10:02:00,
2013-01-02 01:12:00,22.0,19.0,-100.00,South,180,13.0,19.0,89,0.00,,,0.00,0.000000,,2013-01-02 10:12:00,
2013-01-02 01:22:00,22.0,19.0,-100.00,South,180,13.0,19.0,89,0.00,,,0.00,0.000000,,2013-01-02 10:22:00,
2013-01-02 01:32:00,22.0,19.0,-100.00,South,180,13.0,19.0,89,0.00,,,0.00,0.000000,,2013-01-02 10:32:00,
2013-01-02 01:52:00,21.0,19.0,-100.00,SSW,193,7.0,16.0,91,0.00,,,0.00,0.000000,,2013-01-02 10:52:00,
2013-01-02 02:02:00,21.0,19.0,-100.00,SSW,193,7.0,16.0,91,0.00,,,0.00,0.000000,,2013-01-02 11:02:00,
2013-01-02 02:11:00,21.0,19.0,-100.00,SSW,193,7.0,16.0,91,0.00,,,0.00,0.000000,,2013-01-02 11:11:00,
2013-01-02 02:22:00,21.0,19.0,-100.00,SSW,193,7.0,16.0,91,0.00,,,0.00,0.000000,,2013-01-02 11:22:00,
2013-01-02 02:32:00,21.0,19.0,-100.00,SSW,193,7.0,16.0,91,0.00,,,0.00,0.000000,,2013-01-02 11:32:00,
2013-01-02 02:52:00,22.0,18.0,-100.00,NNE,32,6.0,9.0,83,0.00,,,0.00,0.000000,,2013-01-02 11:52:00,
2013-01-02 03:02:00,22.0,18.0,-100.00,NNE,32,6.0,9.0,83,0.00,,,0.00,0.000000,,2013-01-02 12:02:00,
2013-01-02 03:12:00,22.0,18.0,-100.00,NNE,32,6.0,9.0,83,0.00,,,0.00,0.000000,,2013-01-02 12:12:00,
2013-01-02 03:22:00,22.0,18.0,-100.00,NNE,32,6.0,9.0,83,0.00,,,0.00,0.000000,,2013-01-02 12:22:00,
2013-01-02 03:32:00,22.0,18.0,-100.00,NNE,32,6.0,9.0,83,0.00,,,0.00,0.000000,,2013-01-02 12:32:00,
2013-01-02 03:53:00,22.0,19.0,-100.00,NNE,22,6.0,11.0,87,0.00,,,0.00,0.000000,,2013-01-02 12:53:00,
2013-01-02 04:02:00,22.0,19.0,-100.00,NNE,22,6.0,11.0,87,0.00,,,0.00,0.000000,,2013-01-02 13:02:00,
2013-01-02 04:12:00,22.0,19.0,-100.00,NNE,22,6.0,11.0,87,0.00,,,0.00,0.000000,,2013-01-02 13:12:00,
2013-01-02 04:22:00,22.0,19.0,-100.00,NNE,22,6.0,11.0,87,0.00,,,0.00,0.000000,,2013-01-02 13:22:00,
2013-01-02 04:32:00,22.0,19.0,-100.00,NNE,22,6.0,11.0,87,0.00,,,0.00,0.000000,,2013-01-02 13:32:00,
2013-01-02 04:52:00,21.0,19.0,-100.00,WSW,239,3.0,5.0,92,0.00,,,0.00,0.000000,,2013-01-02 13:52:00,
2013-01-02 05:02:00,21.0,19.0,-100.00,WSW,239,3.0,5.0,92,0.00,,,0.00,0.000000,,2013-01-02 14:02:00,
2013-01-02 05:12:00,21.0,19.0,-100.00,WSW,239,3.0,5.0,92,0.00,,,0.00,0.000000,,2013-01-02 14:12:00,
2013-01-02 05:22:00,21.0,19.0,-100.00,WSW,239,3.0,5.0,92,0.00,,,0.00,0.000000,,2013-01-02 14:22:00,
2013-01-02 05:32:00,21.0,19.0,-100.00,WSW,239,3.0,5.0,92,0.00,,,0.00,0.000000,,2013-01-02 14:32:00,
2013-01-02 05:33:00,21.0,19.0,-100.00,NW,318,3.0,6.0,92,0.00,,,0.00,0.000000,,2013-01-02 14:33:00,
2013-01-02 05:53:00,21.0,19.0,-100.00,NW,318,3.0,6.0,92,0.00,,,0.00,0.000000,,2013-01-02 14:53:00,
2013-01-02 06:02:00,21.0,19.0,-100.00,NW,318,3.0,6.0,92,0.00,,,0.00,0.000000,,2013-01-02 15:02:00,
2013-01-02 06:12:00,21.0,19.0,-100.00,NW,318,3.0,6.0,92,0.00,,,0.00,0.000000,,2013-01-02 15:12:00,
2013-01-02 06:22:00,21.0,19.0,-100.00,NW,318,3.0,6.0,92,0.00,,,0.00,0.000000,,2013-01-02 15:22:00,
2013-01-02 06:53:00,22.0,19.0,-100.00,NE,39,3.0,9.0,88,0.00,,,0.00,0.000000,,2013-01-02 15:53:00,
2013-01-02 07:03:00,22.0,19.0,-100.00,NE,39,3.0,9.0,88,0.00,,,0.00,0.000000,,2013-01-02 16:03:00,
2013-01-02 07:12:00,22.0,19.0,-100.00,NE,39,3.0,9.0,88,0.00,,,0.00,0.000000,,2013-01-02 16:12:00,
2013-01-02 07:22:00,22.0,19.0,-100.00,NE,39,3.0,9.0,88,0.00,,,0.00,0.000000,,2013-01-02 16:22:00,
2013-01-02 07:32:00,22.0,19.0,-100.00,NE,39,3.0,9.0,88,0.00,,,0.00,0.000000,,2013-01-02 16:32:00,
2013-01-02 07:33:00,22.0,19.0,-100.00,NNW,334,3.0,7.0,87,0.00,,,0.00,0.000000,,2013-01-02 16:33:00,
2013-01-02 07:53:00,22.0,19.0,-100.00,NNW,334,3.0,7.0,87,0.00,,,0.00,0.000000,,2013-01-02 16:53:00,
2013-01-02 08:03:00,22.0,19.0,-100.00,NNW,334,3.0,7.0,87,0.00,,,0.00,0.000000,,2013-01-02 17:03:00,
2013-01-02 08:12:00,22.0,19.0,-100.00,NNW,334,3.0,7.0,87,0.00,,,0.00,0.000000,,2013-01-02 17:12:00,
2013-01-02 08:22:00,22.0,19.0,-100.00,NNW,334,3.0,7.0,87,0.00,,,0.00,0.000000,,2013-01-02 17:22:00,
2013-01-02 08:53:00,22.0,18.0,-100.00,NNW,340,4.0,9.0,86,0.00,,,0.00,0.000000,,2013-01-02 17:53:00,
2013-01-02 09:02:00,22.0,18.0,-100.00,NNW,340,4.0,9.0,86,0.00,,,0.00,0.000000,,2013-01-02 18:02:00,
2013-01-02 09:12:00,22.0,18.0,-100.00,NNW,340,4.0,9.0,86,0.00,,,0.00,0.000000,,2013-01-02 18:12:00,
2013-01-02 09:22:00,22.0,18.0,-100.00,NNW,340,4.0,9.0,86,0.00,,,0.00,0.000000,,2013-01-02 18:22:00,
2013-01-02 09:32:00,22.0,18.0,-100.00,NNW,340,4.0,9.0,86,0.00,,,0.00,0.000000,,2013-01-02 18:32:00,
2013-01-02 09:53:00,23.0,19.0,-100.00,West,278,4.0,7.0,84,0.00,,,0.00,0.000000,,2013-01-02 18:53:00,
2013-01-02 10:02:00,23.0,19.0,-100.00,West,278,4.0,7.0,84,0.00,,,0.00,0.000000,,2013-01-02 19:02:00,
2013-01-02 10:12:00,23.0,19.0,-100.00,West,278,4.0,7.0,84,0.00,,,0.00,0.000000,,2013-01-02 19:12:00,
2013-01-02 10:22:00,23.0,19.0,-100.00,West,278,4.0,7.0,84,0.00,,,0.00,0.000000,,2013-01-02 19:22:00,
2013-01-02 10:32:00,23.0,19.0,-100.00,West,278,4.0,7.0,84,0.00,,,0.00,0.000000,,2013-01-02 19:32:00,
2013-01-02 10:52:00,23.0,18.0,-100.00,NW,310,5.0,8.0,81,0.00,,,0.00,8.000000,,2013-01-02 19:52:00,
2013-01-02 11:02:00,23.0,18.0,-100.00,NW,310,5.0,8.0,81,0.00,,,0.00,8.000000,,2013-01-02 20:02:00,
2013-01-02 11:12:00,23.0,18.0,-100.00,NW,310,5.0,8.0,81,0.00,,,0.00,8.000000,,2013-01-02 20:12:00,
2013-01-02 11:22:00,23.0,18.0,-100.00,NW,310,5.0,8.0,81,0.00,,,0.00,8.000000,,2013-01-02 20:22:00,
2013-01-02 11:32:00,23.0,18.0,-100.00,NW,310,5.0,8.0,81,0.00,,,0.00,8.000000,,2013-01-02 20:32:00,
2013-01-02 11:53:00,24.0,15.0,-100.00,NNE,12,6.0,13.0,69,0.00,,,0.00,39.000000,,2013-01-02 20:53:00,
2013-01-02 12:03:00,24.0,15.0,-100.00,NNE,12,6.0,13.0,69,0.00,,,0.00,39.000000,,2013-01-02 21:03:00,
2013-01-02 12:12:00,24.0,15.0,-100.00,NNE,12,6.0,13.0,69,0.00,,,0.00,39.000000,,2013-01-02 21:12:00,
2013-01-02 12:22:00,24.0,15.0,-100.00,NNE,12,6.0,13.0,69,0.00,,,0.00,39.000000,,2013-01-02 21:22:00,
2013-01-02 12:32:00,24.0,15.0,-100.00,NNE,12,6.0,13.0,69,0.00,,,0.00,39.000000,,2013-01-02 21:32:00,
2013-01-02 12:53:00,24.0,15.0,-100.00,NNW,329,3.0,8.0,67,0.00,,,0.00,53.000000,,2013-01-02 21:53:00,
2013-01-02 13:02:00,24.0,15.0,-100.00,NNW,329,3.0,8.0,67,0.00,,,0.00,53.000000,,2013-01-02 22:02:00,
2013-01-02 13:12:00,24.0,15.0,-100.00,NNW,329,3.0,8.0,67,0.00,,,0.00,53.000000,,2013-01-02 22:12:00,
2013-01-02 13:22:00,24.0,15.0,-100.00,NNW,329,3.0,8.0,67,0.00,,,0.00,53.000000,,2013-01-02 22:22:00,
2013-01-02 13:32:00,24.0,15.0,-100.00,NNW,329,3.0,8.0,67,0.00,,,0.00,53.000000,,2013-01-02 22:32:00,
2013-01-02 13:53:00,24.0,13.0,-100.00,NNW,338,3.0,6.0,62,0.00,,,0.00,26.000000,,2013-01-02 22:53:00,
2013-01-02 14:02:00,24.0,13.0,-100.00,NNW,338,3.0,6.0,62,0.00,,,0.00,26.000000,,2013-01-02 23:02:00,
2013-01-02 14:12:00,24.0,13.0,-100.00,NNW,338,3.0,6.0,62,0.00,,,0.00,26.000000,,2013-01-02 23:12:00,
2013-01-02 14:22:00,24.0,13.0,-100.00,NNW,338,3.0,6.0,62,0.00,,,0.00,26.000000,,2013-01-02 23:22:00,
2013-01-02 14:32:00,24.0,13.0,-100.00,NNW,338,3.0,6.0,62,0.00,,,0.00,26.000000,,2013-01-02 23:32:00,
2013-01-02 14:33:00,24.0,14.0,-100.00,NNE,17,3.0,12.0,64,0.00,,,0.00,40.000000,,2013-01-02 23:33:00,
2013-01-02 14:53:00,24.0,14.0,-100.00,NNE,17,3.0,12.0,64,0.00,,,0.00,40.000000,,2013-01-02 23:53:00,
2013-01-02 15:02:00,24.0,14.0,-100.00,NNE,17,3.0,12.0,64,0.00,,,0.00,40.000000,,2013-01-03 00:02:00,
2013-01-02 15:12:00,24.0,14.0,-100.00,NNE,17,3.0,12.0,64,0.00,,,0.00,40.000000,,2013-01-03 00:12:00,
2013-01-02 15:22:00,24.0,14.0,-100.00,NNE,17,3.0,12.0,64,0.00,,,0.00,40.000000,,2013-01-03 00:22:00,
2013-01-02 15:52:00,23.0,14.0,-100.00,NNW,334,3.0,5.0,68,0.00,,,-99.99,6.000000,,2013-01-03 00:52:00,
2013-01-02 16:02:00,23.0,14.0,-100.00,NNW,334,3.0,5.0,68,0.00,,,-99.99,6.000000,,2013-01-03 01:02:00,
2013-01-02 16:12:00,23.0,14.0,-100.00,NNW,334,3.0,5.0,68,0.00,,,-99.99,6.000000,,2013-01-03 01:12:00,
2013-01-02 16:22:00,23.0,14.0,-100.00,NNW,334,3.0,5.0,68,0.00,,,-99.99,6.000000,,2013-01-03 01:22:00,
2013-01-02 16:32:00,23.0,14.0,-100.00,NNW,334,3.0,5.0,68,0.00,,,-99.99,6.000000,,2013-01-03 01:32:00,
2013-01-02 16:52:00,23.0,13.0,-100.00,NNE,22,6.0,11.0,66,0.00,,,0.00,0.000000,,2013-01-03 01:52:00,
2013-01-02 17:02:00,23.0,13.0,-100.00,NNE,22,6.0,11.0,66,0.00,,,0.00,0.000000,,2013-01-03 02:02:00,
2013-01-02 17:12:00,23.0,13.0,-100.00,NNE,22,6.0,11.0,66,0.00,,,0.00,0.000000,,2013-01-03 02:12:00,
2013-01-02 17:22:00,23.0,13.0,-100.00,NNE,22,6.0,11.0,66,0.00,,,0.00,0.000000,,2013-01-03 02:22:00,
2013-01-02 17:32:00,23.0,13.0,-100.00,NNE,22,6.0,11.0,66,0.00,,,0.00,0.000000,,2013-01-03 02:32:00,
2013-01-02 18:02:00,23.0,12.0,-100.00,North,6,3.0,9.0,62,0.00,,,0.00,0.000000,,2013-01-03 03:02:00,
2013-01-02 18:12:00,23.0,12.0,-100.00,North,6,3.0,9.0,62,0.00,,,0.00,0.000000,,2013-01-03 03:12:00,
2013-01-02 18:22:00,23.0,12.0,-100.00,North,6,3.0,9.0,62,0.00,,,0.00,0.000000,,2013-01-03 03:22:00,
2013-01-02 18:53:00,23.0,11.0,-100.00,NNW,333,3.0,7.0,59,0.00,,,0.00,0.000000,,2013-01-03 03:53:00,
2013-01-02 19:02:00,23.0,11.0,-100.00,NNW,333,3.0,7.0,59,0.00,,,0.00,0.000000,,2013-01-03 04:02:00,
2013-01-02 19:12:00,23.0,11.0,-100.00,NNW,333,3.0,7.0,59,0.00,,,0.00,0.000000,,2013-01-03 04:12:00,
2013-01-02 19:22:00,23.0,11.0,-100.00,NNW,333,3.0,7.0,59,0.00,,,0.00,0.000000,,2013-01-03 04:22:00,
2013-01-02 19:32:00,23.0,11.0,-100.00,NNW,333,3.0,7.0,59,0.00,,,0.00,0.000000,,2013-01-03 04:32:00,
2013-01-02 19:33:00,24.0,11.0,-100.00,NW,309,4.0,6.0,57,0.00,,,0.00,0.000000,,2013-01-03 04:33:00,
2013-01-02 19:52:00,24.0,11.0,-100.00,NW,309,4.0,6.0,57,0.00,,,0.00,0.000000,,2013-01-03 04:52:00,
2013-01-02 20:03:00,24.0,11.0,-100.00,NW,309,4.0,6.0,57,0.00,,,0.00,0.000000,,2013-01-03 05:03:00,
2013-01-02 20:12:00,24.0,11.0,-100.00,NW,309,4.0,6.0,57,0.00,,,0.00,0.000000,,2013-01-03 05:12:00,
2013-01-02 20:22:00,24.0,11.0,-100.00,NW,309,4.0,6.0,57,0.00,,,0.00,0.000000,,2013-01-03 05:22:00,
2013-01-02 20:53:00,24.0,11.0,-100.00,NW,311,5.0,8.0,56,0.00,,,-99.99,0.000000,,2013-01-03 05:53:00,
2013-01-02 21:02:00,24.0,11.0,-100.00,NW,311,5.0,8.0,56,0.00,,,-99.99,0.000000,,2013-01-03 06:02:00,
2013-01-02 21:12:00,24.0,11.0,-100.00,NW,311,5.0,8.0,56,0.00,,,-99.99,0.000000,,2013-01-03 06:12:00,
2013-01-02 21:22:00,24.0,11.0,-100.00,NW,311,5.0,8.0,56,0.00,,,-99.99,0.000000,,2013-01-03 06:22:00,
2013-01-02 21:32:00,24.0,11.0,-100.00,NW,311,5.0,8.0,56,0.00,,,-99.99,0.000000,,2013-01-03 06:32:00,
2013-01-02 21:52:00,23.0,10.0,-100.00,NW,314,4.0,8.0,57,0.00,,,0.00,0.000000,,2013-01-03 06:52:00,
2013-01-02 22:02:00,23.0,10.0,-100.00,NW,314,4.0,8.0,57,0.00,,,0.00,0.000000,,2013-01-03 07:02:00,
2013-01-02 22:12:00,23.0,10.0,-100.00,NW,314,4.0,8.0,57,0.00,,,0.00,0.000000,,2013-01-03 07:12:00,
2013-01-02 22:22:00,23.0,10.0,-100.00,NW,314,4.0,8.0,57,0.00,,,0.00,0.000000,,2013-01-03 07:22:00,
2013-01-02 22:32:00,23.0,10.0,-100.00,NW,314,4.0,8.0,57,0.00,,,0.00,0.000000,,2013-01-03 07:32:00,
2013-01-02 22:53:00,23.0,9.0,-100.00,North,357,3.0,5.0,55,0.00,,,0.00,0.000000,,2013-01-03 07:53:00,
2013-01-02 23:02:00,23.0,9.0,-100.00,North,357,3.0,5.0,55,0.00,,,0.00,0.000000,,2013-01-03 08:02:00,
2013-01-02 23:11:00,23.0,9.0,-100.00,North,357,3.0,5.0,55,0.00,,,0.00,0.000000,,2013-01-03 08:11:00,
2013-01-02 23:22:00,23.0,9.0,-100.00,North,357,3.0,5.0,55,0.00,,,0.00,0.000000,,2013-01-03 08:22:00,
2013-01-02 23:32:00,23.0,9.0,-100.00,North,357,3.0,5.0,55,0.00,,,0.00,0.000000,,2013-01-03 08:32:00,
2013-01-02 23:33:00,24.0,8.0,-100.00,NW,310,5.0,10.0,49,0.00,,,0.00,0.000000,,2013-01-03 08:33:00,
2013-01-02 23:53:00,24.0,8.0,-100.00,NW,310,5.0,10.0,49,0.00,,,0.00,0.000000,,2013-01-03 08:53:00,